首页
METAR-TAF:

METAR-TAF

机场 :

Beaver Falls, 宾夕法尼亚州, 美国

纬度: 40-46N, 经度: 080-24W, 海拔: 382米

当前天气观测

该预报发布于46分钟前的23:47 UTC
静风
温度 24°C
湿度 50%
气压 1015 hPa
能見度: 16.1公里
散云层高于6500英尺

METAR: KBVI 252347Z 00000KT 10SM SCT065 24/13 A2998

时间: 20:33 (00:33 UTC)

预报

该预报发布于54分钟前的23:39 UTC
预报有效从26日的 00点(UTC)到 26日的 24点(UTC)
风速7节,风向西
能見度: 10公里
散云层高于25000英尺
从 26日的 0400点(UTC)
风速3节,风向西转西南
能見度: 10公里
天空无云
从 26日的 1400点(UTC)
风速9节,风向西南
能見度: 10公里
散云层高于25000英尺
从 26日的 1800点(UTC)
风速9节,风向西转西南,有时为16节阵风
能見度: 10公里
多云层高于10000英尺
附近有阵雨

TAF: KBVI 252339Z 2600/2624 26007KT P6SM SCT250 FM260400 24003KT P6SM SKC FM261400 23009KT P6SM SCT250 FM261800 24009G16KT P6SM VCSH BKN100

超过4000个机场的气象观测和天气预报(METAR&TAF报告)。

可查询的气象台以黄色和红色小点在地图上表示。

将鼠标移到小点上方,可查看气象台名称。

然后点击查看天气观测和预报。

如需切换地图:点击带黑十字的绿色按钮放大地图;点击带横线的绿色按钮缩小地图;或者点击绿色箭头查看邻近地区的地图。


METAR-TAF: